sensor_id;sensor_type;location;lat;lon;timestamp;P1;durP1;ratioP1;P2;durP2;ratioP2
57325;SDS011;43161;50.950;18.224;2022-09-14T00:01:28;10.70;;;8.90;;
57325;SDS011;43161;50.950;18.224;2022-09-14T00:04:00;15.10;;;10.60;;
57325;SDS011;43161;50.950;18.224;2022-09-14T00:06:31;10.60;;;8.90;;
57325;SDS011;43161;50.950;18.224;2022-09-14T00:08:58;10.80;;;8.50;;
57325;SDS011;43161;50.950;18.224;2022-09-14T00:11:26;10.10;;;8.50;;
57325;SDS011;43161;50.950;18.224;2022-09-14T00:13:53;14.30;;;9.50;;
57325;SDS011;43161;50.950;18.224;2022-09-14T00:16:23;11.00;;;8.80;;
57325;SDS011;43161;50.950;18.224;2022-09-14T00:18:58;13.30;;;8.70;;
57325;SDS011;43161;50.950;18.224;2022-09-14T00:21:25;12.60;;;10.00;;
57325;SDS011;43161;50.950;18.224;2022-09-14T00:23:51;12.50;;;9.00;;
57325;SDS011;43161;50.950;18.224;2022-09-14T00:26:21;15.20;;;9.20;;
57325;SDS011;43161;50.950;18.224;2022-09-14T00:28:48;11.00;;;9.10;;
57325;SDS011;43161;50.950;18.224;2022-09-14T00:31:15;11.30;;;9.60;;
57325;SDS011;43161;50.950;18.224;2022-09-14T00:36:12;10.80;;;8.50;;
57325;SDS011;43161;50.950;18.224;2022-09-14T00:38:39;17.60;;;9.80;;
57325;SDS011;43161;50.950;18.224;2022-09-14T00:41:07;13.90;;;9.60;;
57325;SDS011;43161;50.950;18.224;2022-09-14T00:46:22;13.70;;;10.90;;
57325;SDS011;43161;50.950;18.224;2022-09-14T00:51:14;14.50;;;11.20;;
57325;SDS011;43161;50.950;18.224;2022-09-14T00:53:41;15.70;;;12.10;;
57325;SDS011;43161;50.950;18.224;2022-09-14T00:56:08;17.10;;;12.20;;
57325;SDS011;43161;50.950;18.224;2022-09-14T00:58:34;16.00;;;10.90;;
57325;SDS011;43161;50.950;18.224;2022-09-14T01:00:59;16.40;;;10.50;;
57325;SDS011;43161;50.950;18.224;2022-09-14T01:03:26;13.20;;;10.60;;
57325;SDS011;43161;50.950;18.224;2022-09-14T01:14:28;16.20;;;10.60;;
57325;SDS011;43161;50.950;18.224;2022-09-14T01:17:10;14.10;;;11.20;;
57325;SDS011;43161;50.950;18.224;2022-09-14T01:31:20;13.40;;;10.70;;
57325;SDS011;43161;50.950;18.224;2022-09-14T01:37:00;14.60;;;10.50;;
57325;SDS011;43161;50.950;18.224;2022-09-14T01:39:31;15.00;;;10.90;;
57325;SDS011;43161;50.950;18.224;2022-09-14T01:41:58;16.80;;;10.80;;
57325;SDS011;43161;50.950;18.224;2022-09-14T01:44:26;12.20;;;10.20;;
57325;SDS011;43161;50.950;18.224;2022-09-14T01:47:00;16.40;;;11.50;;
57325;SDS011;43161;50.950;18.224;2022-09-14T01:49:30;14.60;;;11.00;;
57325;SDS011;43161;50.950;18.224;2022-09-14T01:52:00;13.20;;;11.00;;
57325;SDS011;43161;50.950;18.224;2022-09-14T01:54:31;16.50;;;11.60;;
57325;SDS011;43161;50.950;18.224;2022-09-14T01:57:05;13.20;;;11.40;;
57325;SDS011;43161;50.950;18.224;2022-09-14T01:59:36;18.60;;;11.70;;
57325;SDS011;43161;50.950;18.224;2022-09-14T02:02:14;13.90;;;10.80;;
57325;SDS011;43161;50.950;18.224;2022-09-14T02:04:49;16.40;;;11.60;;
57325;SDS011;43161;50.950;18.224;2022-09-14T02:07:20;17.90;;;10.60;;
57325;SDS011;43161;50.950;18.224;2022-09-14T02:09:46;20.50;;;11.30;;
57325;SDS011;43161;50.950;18.224;2022-09-14T02:12:13;15.10;;;11.10;;
57325;SDS011;43161;50.950;18.224;2022-09-14T02:14:39;12.60;;;10.10;;
57325;SDS011;43161;50.950;18.224;2022-09-14T02:17:04;14.90;;;10.60;;
57325;SDS011;43161;50.950;18.224;2022-09-14T02:19:34;15.80;;;10.20;;
57325;SDS011;43161;50.950;18.224;2022-09-14T02:22:04;13.80;;;11.10;;
57325;SDS011;43161;50.950;18.224;2022-09-14T02:24:30;15.30;;;11.40;;
57325;SDS011;43161;50.950;18.224;2022-09-14T02:26:55;15.40;;;11.30;;
57325;SDS011;43161;50.950;18.224;2022-09-14T02:29:22;13.50;;;10.40;;
57325;SDS011;43161;50.950;18.224;2022-09-14T02:31:54;16.20;;;12.10;;
57325;SDS011;43161;50.950;18.224;2022-09-14T02:37:17;16.70;;;10.80;;
57325;SDS011;43161;50.950;18.224;2022-09-14T02:39:47;14.70;;;10.60;;
57325;SDS011;43161;50.950;18.224;2022-09-14T02:48:36;15.40;;;10.40;;
57325;SDS011;43161;50.950;18.224;2022-09-14T02:56:44;15.30;;;11.30;;
57325;SDS011;43161;50.950;18.224;2022-09-14T02:59:10;15.50;;;11.40;;
57325;SDS011;43161;50.950;18.224;2022-09-14T03:01:36;13.10;;;11.20;;
57325;SDS011;43161;50.950;18.224;2022-09-14T03:04:02;17.70;;;13.10;;
57325;SDS011;43161;50.950;18.224;2022-09-14T03:06:27;22.40;;;12.30;;
57325;SDS011;43161;50.950;18.224;2022-09-14T03:08:53;21.00;;;12.30;;
57325;SDS011;43161;50.950;18.224;2022-09-14T03:11:19;14.70;;;11.10;;
57325;SDS011;43161;50.950;18.224;2022-09-14T03:13:44;17.70;;;12.50;;
57325;SDS011;43161;50.950;18.224;2022-09-14T03:16:11;18.90;;;12.60;;
57325;SDS011;43161;50.950;18.224;2022-09-14T03:18:41;17.60;;;13.50;;
57325;SDS011;43161;50.950;18.224;2022-09-14T03:21:08;18.30;;;12.60;;
57325;SDS011;43161;50.950;18.224;2022-09-14T03:23:46;17.50;;;12.50;;
57325;SDS011;43161;50.950;18.224;2022-09-14T03:26:14;21.20;;;13.10;;
57325;SDS011;43161;50.950;18.224;2022-09-14T03:28:42;15.20;;;12.20;;
57325;SDS011;43161;50.950;18.224;2022-09-14T03:31:09;16.10;;;12.40;;
57325;SDS011;43161;50.950;18.224;2022-09-14T03:36:08;14.60;;;11.30;;
57325;SDS011;43161;50.950;18.224;2022-09-14T03:38:42;18.50;;;12.30;;
57325;SDS011;43161;50.950;18.224;2022-09-14T03:41:11;18.60;;;13.40;;
57325;SDS011;43161;50.950;18.224;2022-09-14T03:43:37;16.30;;;12.60;;
57325;SDS011;43161;50.950;18.224;2022-09-14T03:46:07;16.00;;;13.00;;
57325;SDS011;43161;50.950;18.224;2022-09-14T03:48:35;18.80;;;13.30;;
57325;SDS011;43161;50.950;18.224;2022-09-14T03:51:01;18.00;;;12.90;;
57325;SDS011;43161;50.950;18.224;2022-09-14T03:53:28;22.40;;;14.30;;
57325;SDS011;43161;50.950;18.224;2022-09-14T03:55:54;20.00;;;13.10;;
57325;SDS011;43161;50.950;18.224;2022-09-14T03:58:20;17.80;;;13.40;;
57325;SDS011;43161;50.950;18.224;2022-09-14T04:00:47;17.60;;;13.80;;
57325;SDS011;43161;50.950;18.224;2022-09-14T04:03:12;18.00;;;12.40;;
57325;SDS011;43161;50.950;18.224;2022-09-14T04:05:39;19.50;;;12.70;;
57325;SDS011;43161;50.950;18.224;2022-09-14T04:08:05;23.90;;;13.80;;
57325;SDS011;43161;50.950;18.224;2022-09-14T04:10:30;22.00;;;14.20;;
57325;SDS011;43161;50.950;18.224;2022-09-14T04:12:56;16.80;;;12.90;;
57325;SDS011;43161;50.950;18.224;2022-09-14T04:15:22;16.20;;;13.00;;
57325;SDS011;43161;50.950;18.224;2022-09-14T04:17:48;18.10;;;13.70;;
57325;SDS011;43161;50.950;18.224;2022-09-14T04:20:14;18.60;;;14.20;;
57325;SDS011;43161;50.950;18.224;2022-09-14T04:22:39;19.30;;;14.50;;
57325;SDS011;43161;50.950;18.224;2022-09-14T04:25:06;18.30;;;14.00;;
57325;SDS011;43161;50.950;18.224;2022-09-14T04:27:32;16.50;;;13.10;;
57325;SDS011;43161;50.950;18.224;2022-09-14T04:29:58;22.80;;;13.90;;
57325;SDS011;43161;50.950;18.224;2022-09-14T04:32:23;21.00;;;14.20;;
57325;SDS011;43161;50.950;18.224;2022-09-14T04:34:49;25.70;;;14.90;;
57325;SDS011;43161;50.950;18.224;2022-09-14T04:37:15;18.30;;;13.90;;
57325;SDS011;43161;50.950;18.224;2022-09-14T04:39:41;20.40;;;14.10;;
57325;SDS011;43161;50.950;18.224;2022-09-14T04:42:06;18.30;;;14.00;;
57325;SDS011;43161;50.950;18.224;2022-09-14T04:44:32;19.60;;;13.80;;
57325;SDS011;43161;50.950;18.224;2022-09-14T04:46:58;21.40;;;14.40;;
57325;SDS011;43161;50.950;18.224;2022-09-14T04:49:23;20.30;;;14.50;;
57325;SDS011;43161;50.950;18.224;2022-09-14T04:51:49;17.20;;;13.90;;
57325;SDS011;43161;50.950;18.224;2022-09-14T04:54:15;15.80;;;12.50;;
57325;SDS011;43161;50.950;18.224;2022-09-14T04:56:42;24.70;;;13.40;;
57325;SDS011;43161;50.950;18.224;2022-09-14T04:59:08;17.40;;;14.20;;
57325;SDS011;43161;50.950;18.224;2022-09-14T05:01:36;18.50;;;13.90;;
57325;SDS011;43161;50.950;18.224;2022-09-14T05:04:03;19.70;;;14.70;;
57325;SDS011;43161;50.950;18.224;2022-09-14T05:06:31;19.80;;;13.90;;
57325;SDS011;43161;50.950;18.224;2022-09-14T05:08:58;23.40;;;14.60;;
57325;SDS011;43161;50.950;18.224;2022-09-14T05:11:25;20.30;;;14.70;;
57325;SDS011;43161;50.950;18.224;2022-09-14T05:13:53;23.60;;;14.20;;
57325;SDS011;43161;50.950;18.224;2022-09-14T05:18:46;18.30;;;14.50;;
57325;SDS011;43161;50.950;18.224;2022-09-14T05:21:13;15.60;;;12.70;;
57325;SDS011;43161;50.950;18.224;2022-09-14T05:23:41;20.30;;;15.80;;
57325;SDS011;43161;50.950;18.224;2022-09-14T05:26:07;18.90;;;14.70;;
57325;SDS011;43161;50.950;18.224;2022-09-14T05:28:33;22.60;;;15.90;;
57325;SDS011;43161;50.950;18.224;2022-09-14T05:31:03;23.00;;;16.60;;
57325;SDS011;43161;50.950;18.224;2022-09-14T05:33:30;21.60;;;16.30;;
57325;SDS011;43161;50.950;18.224;2022-09-14T05:35:58;17.70;;;15.00;;
57325;SDS011;43161;50.950;18.224;2022-09-14T05:38:29;21.10;;;16.00;;
57325;SDS011;43161;50.950;18.224;2022-09-14T05:40:55;18.90;;;15.30;;
57325;SDS011;43161;50.950;18.224;2022-09-14T05:43:20;22.10;;;15.90;;
57325;SDS011;43161;50.950;18.224;2022-09-14T05:45:47;23.70;;;16.40;;
57325;SDS011;43161;50.950;18.224;2022-09-14T05:48:13;25.00;;;16.30;;
57325;SDS011;43161;50.950;18.224;2022-09-14T05:50:39;24.00;;;17.30;;
57325;SDS011;43161;50.950;18.224;2022-09-14T05:53:05;25.20;;;18.00;;
57325;SDS011;43161;50.950;18.224;2022-09-14T05:55:30;27.20;;;17.80;;
57325;SDS011;43161;50.950;18.224;2022-09-14T05:57:55;32.20;;;23.10;;
57325;SDS011;43161;50.950;18.224;2022-09-14T06:00:21;27.40;;;20.40;;
57325;SDS011;43161;50.950;18.224;2022-09-14T06:02:47;20.70;;;17.00;;
57325;SDS011;43161;50.950;18.224;2022-09-14T06:05:14;22.40;;;16.90;;
57325;SDS011;43161;50.950;18.224;2022-09-14T06:07:40;21.40;;;17.20;;
57325;SDS011;43161;50.950;18.224;2022-09-14T06:10:06;24.40;;;17.50;;
57325;SDS011;43161;50.950;18.224;2022-09-14T06:12:32;22.80;;;16.80;;
57325;SDS011;43161;50.950;18.224;2022-09-14T06:14:57;24.20;;;17.30;;
57325;SDS011;43161;50.950;18.224;2022-09-14T06:17:23;19.90;;;15.40;;
57325;SDS011;43161;50.950;18.224;2022-09-14T06:19:49;20.00;;;15.70;;
57325;SDS011;43161;50.950;18.224;2022-09-14T06:22:15;24.60;;;16.70;;
57325;SDS011;43161;50.950;18.224;2022-09-14T06:24:40;36.30;;;22.60;;
57325;SDS011;43161;50.950;18.224;2022-09-14T06:27:06;27.10;;;16.60;;
57325;SDS011;43161;50.950;18.224;2022-09-14T06:29:34;32.60;;;22.60;;
57325;SDS011;43161;50.950;18.224;2022-09-14T06:32:00;20.60;;;17.00;;
57325;SDS011;43161;50.950;18.224;2022-09-14T06:34:26;29.50;;;19.50;;
57325;SDS011;43161;50.950;18.224;2022-09-14T06:36:51;24.90;;;18.00;;
57325;SDS011;43161;50.950;18.224;2022-09-14T06:39:17;22.20;;;15.30;;
57325;SDS011;43161;50.950;18.224;2022-09-14T06:41:42;23.90;;;16.30;;
57325;SDS011;43161;50.950;18.224;2022-09-14T06:44:08;19.70;;;15.70;;
57325;SDS011;43161;50.950;18.224;2022-09-14T06:46:34;20.60;;;14.90;;
57325;SDS011;43161;50.950;18.224;2022-09-14T06:49:03;25.60;;;17.20;;
57325;SDS011;43161;50.950;18.224;2022-09-14T06:54:00;33.00;;;21.80;;
57325;SDS011;43161;50.950;18.224;2022-09-14T06:56:36;24.20;;;16.10;;
57325;SDS011;43161;50.950;18.224;2022-09-14T06:59:04;55.80;;;28.60;;
57325;SDS011;43161;50.950;18.224;2022-09-14T07:01:30;45.10;;;24.10;;
57325;SDS011;43161;50.950;18.224;2022-09-14T07:03:56;20.30;;;14.70;;
57325;SDS011;43161;50.950;18.224;2022-09-14T07:06:25;27.70;;;19.30;;
57325;SDS011;43161;50.950;18.224;2022-09-14T07:08:53;22.00;;;14.80;;
57325;SDS011;43161;50.950;18.224;2022-09-14T07:11:21;21.70;;;15.70;;
57325;SDS011;43161;50.950;18.224;2022-09-14T07:13:50;22.50;;;16.30;;
57325;SDS011;43161;50.950;18.224;2022-09-14T07:16:17;25.80;;;14.50;;
57325;SDS011;43161;50.950;18.224;2022-09-14T07:18:43;46.30;;;29.40;;
57325;SDS011;43161;50.950;18.224;2022-09-14T07:21:09;32.00;;;20.40;;
57325;SDS011;43161;50.950;18.224;2022-09-14T07:23:37;21.20;;;14.90;;
57325;SDS011;43161;50.950;18.224;2022-09-14T07:28:33;18.50;;;14.10;;
57325;SDS011;43161;50.950;18.224;2022-09-14T07:31:00;19.50;;;14.40;;
57325;SDS011;43161;50.950;18.224;2022-09-14T07:33:25;17.90;;;12.80;;
57325;SDS011;43161;50.950;18.224;2022-09-14T07:35:51;17.10;;;13.50;;
57325;SDS011;43161;50.950;18.224;2022-09-14T07:38:17;24.10;;;14.20;;
57325;SDS011;43161;50.950;18.224;2022-09-14T07:40:43;21.30;;;12.50;;
57325;SDS011;43161;50.950;18.224;2022-09-14T07:43:10;17.00;;;12.40;;
57325;SDS011;43161;50.950;18.224;2022-09-14T07:45:36;18.20;;;11.50;;
57325;SDS011;43161;50.950;18.224;2022-09-14T07:48:03;12.60;;;10.40;;
57325;SDS011;43161;50.950;18.224;2022-09-14T07:50:29;14.60;;;10.90;;
57325;SDS011;43161;50.950;18.224;2022-09-14T07:52:55;15.50;;;11.80;;
57325;SDS011;43161;50.950;18.224;2022-09-14T07:55:21;14.50;;;10.00;;
57325;SDS011;43161;50.950;18.224;2022-09-14T07:57:47;12.40;;;9.70;;
57325;SDS011;43161;50.950;18.224;2022-09-14T08:00:12;14.50;;;10.40;;
57325;SDS011;43161;50.950;18.224;2022-09-14T08:02:39;17.40;;;10.00;;
57325;SDS011;43161;50.950;18.224;2022-09-14T08:05:04;14.90;;;10.40;;
57325;SDS011;43161;50.950;18.224;2022-09-14T08:07:31;14.80;;;9.00;;
57325;SDS011;43161;50.950;18.224;2022-09-14T08:09:56;10.10;;;8.50;;
57325;SDS011;43161;50.950;18.224;2022-09-14T08:12:22;14.20;;;9.00;;
57325;SDS011;43161;50.950;18.224;2022-09-14T08:14:48;9.30;;;7.40;;
57325;SDS011;43161;50.950;18.224;2022-09-14T08:17:15;12.80;;;8.10;;
57325;SDS011;43161;50.950;18.224;2022-09-14T08:19:41;13.40;;;8.70;;
57325;SDS011;43161;50.950;18.224;2022-09-14T08:22:07;14.20;;;9.10;;
57325;SDS011;43161;50.950;18.224;2022-09-14T08:24:32;13.40;;;9.00;;
57325;SDS011;43161;50.950;18.224;2022-09-14T08:26:58;14.50;;;8.80;;
57325;SDS011;43161;50.950;18.224;2022-09-14T08:29:24;16.60;;;8.90;;
57325;SDS011;43161;50.950;18.224;2022-09-14T08:31:50;11.60;;;8.60;;
57325;SDS011;43161;50.950;18.224;2022-09-14T08:34:17;12.50;;;8.70;;
57325;SDS011;43161;50.950;18.224;2022-09-14T08:36:44;14.70;;;8.70;;
57325;SDS011;43161;50.950;18.224;2022-09-14T08:39:11;11.70;;;8.60;;
57325;SDS011;43161;50.950;18.224;2022-09-14T08:46:40;9.20;;;7.10;;
57325;SDS011;43161;50.950;18.224;2022-09-14T08:49:10;11.20;;;7.20;;
57325;SDS011;43161;50.950;18.224;2022-09-14T08:51:43;11.00;;;7.50;;
57325;SDS011;43161;50.950;18.224;2022-09-14T08:54:09;8.60;;;7.50;;
57325;SDS011;43161;50.950;18.224;2022-09-14T08:56:35;11.50;;;7.30;;
57325;SDS011;43161;50.950;18.224;2022-09-14T09:01:59;9.70;;;7.10;;
57325;SDS011;43161;50.950;18.224;2022-09-14T09:04:49;9.20;;;7.30;;
57325;SDS011;43161;50.950;18.224;2022-09-14T09:09:50;9.40;;;6.90;;
57325;SDS011;43161;50.950;18.224;2022-09-14T09:12:22;8.90;;;6.40;;
57325;SDS011;43161;50.950;18.224;2022-09-14T09:15:18;8.50;;;6.00;;
57325;SDS011;43161;50.950;18.224;2022-09-14T09:17:47;8.90;;;6.60;;
57325;SDS011;43161;50.950;18.224;2022-09-14T09:20:18;10.10;;;6.60;;
57325;SDS011;43161;50.950;18.224;2022-09-14T09:22:49;8.10;;;5.80;;
57325;SDS011;43161;50.950;18.224;2022-09-14T09:25:20;8.90;;;6.40;;
57325;SDS011;43161;50.950;18.224;2022-09-14T09:27:48;7.10;;;6.30;;
57325;SDS011;43161;50.950;18.224;2022-09-14T09:30:15;10.80;;;6.90;;
57325;SDS011;43161;50.950;18.224;2022-09-14T09:32:42;10.70;;;6.90;;
57325;SDS011;43161;50.950;18.224;2022-09-14T09:35:12;11.90;;;5.60;;
57325;SDS011;43161;50.950;18.224;2022-09-14T09:37:39;13.80;;;6.50;;
57325;SDS011;43161;50.950;18.224;2022-09-14T09:40:15;7.70;;;6.20;;
57325;SDS011;43161;50.950;18.224;2022-09-14T09:53:47;9.20;;;6.70;;
57325;SDS011;43161;50.950;18.224;2022-09-14T09:56:19;8.70;;;5.70;;
57325;SDS011;43161;50.950;18.224;2022-09-14T09:58:47;8.10;;;5.60;;
57325;SDS011;43161;50.950;18.224;2022-09-14T10:06:28;10.70;;;6.00;;
57325;SDS011;43161;50.950;18.224;2022-09-14T10:08:54;7.60;;;5.70;;
57325;SDS011;43161;50.950;18.224;2022-09-14T10:11:39;9.40;;;5.10;;
57325;SDS011;43161;50.950;18.224;2022-09-14T10:14:18;13.10;;;5.70;;
57325;SDS011;43161;50.950;18.224;2022-09-14T10:16:45;9.40;;;5.20;;
57325;SDS011;43161;50.950;18.224;2022-09-14T10:19:17;9.00;;;4.80;;
57325;SDS011;43161;50.950;18.224;2022-09-14T10:24:52;12.70;;;8.90;;
57325;SDS011;43161;50.950;18.224;2022-09-14T10:30:14;7.30;;;4.70;;
57325;SDS011;43161;50.950;18.224;2022-09-14T10:32:46;7.30;;;5.50;;
57325;SDS011;43161;50.950;18.224;2022-09-14T10:35:21;11.50;;;7.90;;
57325;SDS011;43161;50.950;18.224;2022-09-14T10:37:58;7.60;;;5.30;;
57325;SDS011;43161;50.950;18.224;2022-09-14T10:40:34;8.30;;;5.30;;
57325;SDS011;43161;50.950;18.224;2022-09-14T10:45:56;11.60;;;6.50;;
57325;SDS011;43161;50.950;18.224;2022-09-14T10:48:26;9.00;;;4.60;;
57325;SDS011;43161;50.950;18.224;2022-09-14T10:57:02;9.80;;;4.10;;
57325;SDS011;43161;50.950;18.224;2022-09-14T10:59:37;6.10;;;4.30;;
57325;SDS011;43161;50.950;18.224;2022-09-14T11:10:30;7.40;;;4.00;;
57325;SDS011;43161;50.950;18.224;2022-09-14T11:15:31;5.70;;;4.10;;
57325;SDS011;43161;50.950;18.224;2022-09-14T11:27:03;6.30;;;5.20;;
57325;SDS011;43161;50.950;18.224;2022-09-14T11:32:41;7.50;;;5.20;;
57325;SDS011;43161;50.950;18.224;2022-09-14T11:37:55;6.90;;;4.80;;
57325;SDS011;43161;50.950;18.224;2022-09-14T11:40:29;9.30;;;5.20;;
57325;SDS011;43161;50.950;18.224;2022-09-14T11:42:59;5.60;;;4.70;;
57325;SDS011;43161;50.950;18.224;2022-09-14T11:45:30;7.30;;;4.50;;
57325;SDS011;43161;50.950;18.224;2022-09-14T11:50:37;6.00;;;4.60;;
57325;SDS011;43161;50.950;18.224;2022-09-14T11:55:48;6.90;;;5.30;;
57325;SDS011;43161;50.950;18.224;2022-09-14T12:03:17;9.00;;;4.80;;
57325;SDS011;43161;50.950;18.224;2022-09-14T12:05:44;7.90;;;5.40;;
57325;SDS011;43161;50.950;18.224;2022-09-14T12:10:59;10.30;;;5.40;;
57325;SDS011;43161;50.950;18.224;2022-09-14T12:13:44;7.20;;;5.40;;
57325;SDS011;43161;50.950;18.224;2022-09-14T12:16:10;8.30;;;5.40;;
57325;SDS011;43161;50.950;18.224;2022-09-14T12:18:37;5.70;;;4.80;;
57325;SDS011;43161;50.950;18.224;2022-09-14T12:23:44;6.60;;;5.90;;
57325;SDS011;43161;50.950;18.224;2022-09-14T12:26:13;8.60;;;6.80;;
57325;SDS011;43161;50.950;18.224;2022-09-14T12:28:53;14.00;;;6.80;;
57325;SDS011;43161;50.950;18.224;2022-09-14T12:36:57;8.30;;;6.60;;
57325;SDS011;43161;50.950;18.224;2022-09-14T12:39:28;6.90;;;5.90;;
57325;SDS011;43161;50.950;18.224;2022-09-14T12:41:57;10.30;;;6.00;;
57325;SDS011;43161;50.950;18.224;2022-09-14T12:44:29;9.60;;;6.80;;
57325;SDS011;43161;50.950;18.224;2022-09-14T12:52:55;11.50;;;9.30;;
57325;SDS011;43161;50.950;18.224;2022-09-14T13:03:46;11.50;;;9.30;;
57325;SDS011;43161;50.950;18.224;2022-09-14T13:06:13;12.00;;;9.00;;
57325;SDS011;43161;50.950;18.224;2022-09-14T13:08:42;13.30;;;9.90;;
57325;SDS011;43161;50.950;18.224;2022-09-14T13:11:09;11.10;;;9.90;;
57325;SDS011;43161;50.950;18.224;2022-09-14T13:13:43;11.60;;;10.00;;
57325;SDS011;43161;50.950;18.224;2022-09-14T13:16:12;12.70;;;10.10;;
57325;SDS011;43161;50.950;18.224;2022-09-14T13:18:42;11.00;;;9.80;;
57325;SDS011;43161;50.950;18.224;2022-09-14T13:23:52;11.10;;;10.00;;
57325;SDS011;43161;50.950;18.224;2022-09-14T13:26:22;13.40;;;9.40;;
57325;SDS011;43161;50.950;18.224;2022-09-14T13:28:51;11.00;;;9.70;;
57325;SDS011;43161;50.950;18.224;2022-09-14T13:31:27;18.90;;;10.00;;
57325;SDS011;43161;50.950;18.224;2022-09-14T13:33:55;12.20;;;9.80;;
57325;SDS011;43161;50.950;18.224;2022-09-14T13:36:26;12.50;;;9.80;;
57325;SDS011;43161;50.950;18.224;2022-09-14T13:38:56;14.30;;;10.60;;
57325;SDS011;43161;50.950;18.224;2022-09-14T13:41:26;12.30;;;10.30;;
57325;SDS011;43161;50.950;18.224;2022-09-14T13:43:53;32.90;;;11.30;;
57325;SDS011;43161;50.950;18.224;2022-09-14T13:46:21;13.50;;;10.50;;
57325;SDS011;43161;50.950;18.224;2022-09-14T13:48:48;13.80;;;10.90;;
57325;SDS011;43161;50.950;18.224;2022-09-14T13:51:14;15.50;;;11.90;;
57325;SDS011;43161;50.950;18.224;2022-09-14T13:56:18;18.60;;;12.80;;
57325;SDS011;43161;50.950;18.224;2022-09-14T13:58:44;14.50;;;11.80;;
57325;SDS011;43161;50.950;18.224;2022-09-14T14:01:10;18.70;;;12.50;;
57325;SDS011;43161;50.950;18.224;2022-09-14T14:09:01;16.90;;;11.70;;
57325;SDS011;43161;50.950;18.224;2022-09-14T14:11:30;19.60;;;14.00;;
57325;SDS011;43161;50.950;18.224;2022-09-14T14:14:08;20.20;;;13.30;;
57325;SDS011;43161;50.950;18.224;2022-09-14T14:16:37;17.90;;;13.60;;
57325;SDS011;43161;50.950;18.224;2022-09-14T14:19:04;18.10;;;13.40;;
57325;SDS011;43161;50.950;18.224;2022-09-14T14:21:31;15.00;;;12.40;;
57325;SDS011;43161;50.950;18.224;2022-09-14T14:26:48;19.90;;;12.40;;
57325;SDS011;43161;50.950;18.224;2022-09-14T14:29:16;22.60;;;12.50;;
57325;SDS011;43161;50.950;18.224;2022-09-14T14:31:42;17.20;;;13.20;;
57325;SDS011;43161;50.950;18.224;2022-09-14T14:36:53;17.40;;;12.60;;
57325;SDS011;43161;50.950;18.224;2022-09-14T14:39:21;15.20;;;12.10;;
57325;SDS011;43161;50.950;18.224;2022-09-14T14:41:48;15.50;;;11.20;;
57325;SDS011;43161;50.950;18.224;2022-09-14T14:46:41;23.60;;;12.80;;
57325;SDS011;43161;50.950;18.224;2022-09-14T14:49:12;16.40;;;12.60;;
57325;SDS011;43161;50.950;18.224;2022-09-14T14:51:38;16.80;;;12.90;;
57325;SDS011;43161;50.950;18.224;2022-09-14T14:54:04;16.80;;;12.40;;
57325;SDS011;43161;50.950;18.224;2022-09-14T14:56:30;18.10;;;12.60;;
57325;SDS011;43161;50.950;18.224;2022-09-14T14:58:56;15.00;;;11.10;;
57325;SDS011;43161;50.950;18.224;2022-09-14T15:01:22;16.10;;;11.00;;
57325;SDS011;43161;50.950;18.224;2022-09-14T15:03:47;18.20;;;10.80;;
57325;SDS011;43161;50.950;18.224;2022-09-14T15:06:13;18.40;;;11.20;;
57325;SDS011;43161;50.950;18.224;2022-09-14T15:08:42;16.20;;;10.90;;
57325;SDS011;43161;50.950;18.224;2022-09-14T15:11:13;13.70;;;10.60;;
57325;SDS011;43161;50.950;18.224;2022-09-14T15:13:42;14.70;;;10.70;;
57325;SDS011;43161;50.950;18.224;2022-09-14T15:16:11;16.50;;;10.20;;
57325;SDS011;43161;50.950;18.224;2022-09-14T15:18:37;13.20;;;10.60;;
57325;SDS011;43161;50.950;18.224;2022-09-14T15:21:03;15.40;;;11.00;;
57325;SDS011;43161;50.950;18.224;2022-09-14T15:23:29;18.70;;;10.80;;
57325;SDS011;43161;50.950;18.224;2022-09-14T15:25:55;13.70;;;10.80;;
57325;SDS011;43161;50.950;18.224;2022-09-14T15:28:21;13.80;;;10.90;;
57325;SDS011;43161;50.950;18.224;2022-09-14T15:30:46;13.90;;;11.00;;
57325;SDS011;43161;50.950;18.224;2022-09-14T15:33:12;16.50;;;10.90;;
57325;SDS011;43161;50.950;18.224;2022-09-14T15:35:38;14.30;;;9.90;;
57325;SDS011;43161;50.950;18.224;2022-09-14T15:38:04;11.30;;;10.10;;
57325;SDS011;43161;50.950;18.224;2022-09-14T15:40:30;18.60;;;11.50;;
57325;SDS011;43161;50.950;18.224;2022-09-14T15:42:56;14.20;;;11.50;;
57325;SDS011;43161;50.950;18.224;2022-09-14T15:45:21;12.40;;;9.30;;
57325;SDS011;43161;50.950;18.224;2022-09-14T15:47:47;11.30;;;9.60;;
57325;SDS011;43161;50.950;18.224;2022-09-14T15:50:13;12.30;;;9.90;;
57325;SDS011;43161;50.950;18.224;2022-09-14T15:52:39;10.40;;;9.30;;
57325;SDS011;43161;50.950;18.224;2022-09-14T15:55:05;15.50;;;10.00;;
57325;SDS011;43161;50.950;18.224;2022-09-14T15:57:33;11.30;;;9.80;;
57325;SDS011;43161;50.950;18.224;2022-09-14T15:59:59;16.40;;;10.20;;
57325;SDS011;43161;50.950;18.224;2022-09-14T16:02:25;12.60;;;10.30;;
57325;SDS011;43161;50.950;18.224;2022-09-14T16:04:50;14.00;;;10.20;;
57325;SDS011;43161;50.950;18.224;2022-09-14T16:07:16;14.40;;;10.60;;
57325;SDS011;43161;50.950;18.224;2022-09-14T16:09:42;15.60;;;11.80;;
57325;SDS011;43161;50.950;18.224;2022-09-14T16:12:08;17.40;;;10.20;;
57325;SDS011;43161;50.950;18.224;2022-09-14T16:14:35;16.70;;;11.40;;
57325;SDS011;43161;50.950;18.224;2022-09-14T16:17:00;14.70;;;10.70;;
57325;SDS011;43161;50.950;18.224;2022-09-14T16:19:27;17.50;;;11.20;;
57325;SDS011;43161;50.950;18.224;2022-09-14T16:21:53;15.70;;;10.70;;
57325;SDS011;43161;50.950;18.224;2022-09-14T16:24:19;11.80;;;10.10;;
57325;SDS011;43161;50.950;18.224;2022-09-14T16:26:45;14.40;;;9.40;;
57325;SDS011;43161;50.950;18.224;2022-09-14T16:29:12;12.30;;;9.90;;
57325;SDS011;43161;50.950;18.224;2022-09-14T16:31:39;11.10;;;9.30;;
57325;SDS011;43161;50.950;18.224;2022-09-14T16:34:08;12.00;;;9.30;;
57325;SDS011;43161;50.950;18.224;2022-09-14T16:36:37;10.90;;;8.40;;
57325;SDS011;43161;50.950;18.224;2022-09-14T16:39:05;12.10;;;9.30;;
57325;SDS011;43161;50.950;18.224;2022-09-14T16:41:33;14.50;;;10.40;;
57325;SDS011;43161;50.950;18.224;2022-09-14T16:44:02;13.40;;;10.50;;
57325;SDS011;43161;50.950;18.224;2022-09-14T16:46:30;11.20;;;9.60;;
57325;SDS011;43161;50.950;18.224;2022-09-14T16:48:56;15.30;;;9.60;;
57325;SDS011;43161;50.950;18.224;2022-09-14T16:51:25;12.40;;;9.90;;
57325;SDS011;43161;50.950;18.224;2022-09-14T16:53:54;12.90;;;8.90;;
57325;SDS011;43161;50.950;18.224;2022-09-14T16:56:22;12.20;;;9.00;;
57325;SDS011;43161;50.950;18.224;2022-09-14T16:58:50;11.50;;;9.50;;
57325;SDS011;43161;50.950;18.224;2022-09-14T17:01:20;14.00;;;8.90;;
57325;SDS011;43161;50.950;18.224;2022-09-14T17:03:48;12.20;;;9.90;;
57325;SDS011;43161;50.950;18.224;2022-09-14T17:06:17;11.60;;;9.70;;
57325;SDS011;43161;50.950;18.224;2022-09-14T17:08:44;11.50;;;9.60;;
57325;SDS011;43161;50.950;18.224;2022-09-14T17:11:11;11.50;;;9.20;;
57325;SDS011;43161;50.950;18.224;2022-09-14T17:13:37;10.70;;;9.10;;
57325;SDS011;43161;50.950;18.224;2022-09-14T17:16:08;14.10;;;10.60;;
57325;SDS011;43161;50.950;18.224;2022-09-14T17:18:36;11.20;;;9.20;;